createdAt,value
2019-04-21T00:00:16.800Z,12.08
2019-04-21T00:01:14.613Z,12.04
2019-04-21T00:02:21.294Z,12.00
2019-04-21T00:03:21.423Z,12.04
2019-04-21T00:04:26.046Z,11.98
2019-04-21T00:05:29.878Z,11.96
2019-04-21T00:06:36.709Z,12.08
2019-04-21T00:07:32.062Z,12.03
2019-04-21T00:09:42.628Z,12.12
2019-04-21T00:10:36.418Z,12.12
2019-04-21T00:11:36.124Z,12.13
2019-04-21T00:12:28.637Z,12.16
2019-04-21T00:13:26.791Z,12.12
2019-04-21T00:14:28.596Z,12.11
2019-04-21T00:15:24.376Z,12.08
2019-04-21T00:16:17.208Z,12.03
2019-04-21T00:17:17.535Z,12.07
2019-04-21T00:18:14.393Z,12.01
2019-04-21T00:19:19.647Z,12.11
2019-04-21T00:20:23.729Z,12.12
2019-04-21T00:21:23.243Z,12.08
2019-04-21T00:22:23.713Z,12.11
2019-04-21T00:23:32.838Z,12.11
2019-04-21T00:24:25.090Z,12.07
2019-04-21T00:25:27.532Z,11.98
2019-04-21T00:26:32.945Z,11.94
2019-04-21T00:27:28.528Z,12.03
2019-04-21T00:28:37.754Z,11.98
2019-04-21T00:29:35.397Z,11.94
2019-04-21T00:30:35.558Z,11.97
2019-04-21T00:31:29.307Z,12.00
2019-04-21T00:32:25.645Z,11.98
2019-04-21T00:33:20.746Z,11.94
2019-04-21T00:34:13.376Z,11.84
2019-04-21T00:35:18.727Z,11.85
2019-04-21T00:36:22.023Z,11.82
2019-04-21T00:37:25.713Z,11.82
2019-04-21T00:38:32.173Z,11.75
2019-04-21T00:39:43.340Z,11.72
2019-04-21T00:40:35.207Z,11.62
2019-04-21T00:41:39.915Z,11.66
2019-04-21T00:42:34.275Z,11.62
2019-04-21T00:43:27.972Z,11.63
2019-04-21T00:44:24.555Z,11.51
2019-04-21T00:45:27.507Z,11.64
2019-04-21T00:46:31.158Z,11.59
2019-04-21T00:47:34.747Z,11.62
2019-04-21T00:48:34.463Z,11.45
2019-04-21T00:49:31.639Z,11.64
2019-04-21T00:50:40.452Z,11.57
2019-04-21T00:51:43.902Z,11.60
2019-04-21T00:52:48.858Z,11.59
2019-04-21T00:53:44.116Z,11.54
2019-04-21T00:54:41.742Z,11.67
2019-04-21T00:55:41.039Z,11.60
2019-04-21T00:56:34.022Z,11.64
2019-04-21T00:57:38.897Z,11.62
2019-04-21T00:58:39.298Z,11.56
2019-04-21T00:59:34.917Z,11.56
2019-04-21T01:00:32.572Z,11.54
2019-04-21T01:01:31.293Z,11.60
2019-04-21T01:02:43.671Z,11.53
2019-04-21T01:04:44.633Z,11.56
2019-04-21T01:05:50.151Z,11.57
2019-04-21T01:06:47.928Z,11.54
2019-04-21T01:07:42.032Z,11.51
2019-04-21T01:08:41.409Z,11.41
2019-04-21T01:09:37.356Z,11.36
2019-04-21T01:10:36.048Z,11.21
2019-04-21T01:11:44.453Z,11.21
2019-04-21T01:12:42.016Z,11.24
2019-04-21T01:13:47.892Z,11.23
2019-04-21T01:14:54.158Z,11.09
2019-04-21T01:15:49.721Z,11.17
2019-04-21T01:16:47.356Z,11.09
2019-04-21T01:17:46.055Z,11.11
2019-04-21T01:18:47.274Z,11.12
2019-04-21T01:19:41.239Z,11.06
2019-04-21T01:20:23.012Z,11.05
2019-04-21T01:21:23.001Z,11.02
2019-04-21T01:22:23.014Z,11.08
2019-04-21T01:23:23.429Z,11.02
2019-04-21T01:24:31.870Z,11.03
2019-04-21T01:25:33.202Z,11.01
2019-04-21T01:26:37.181Z,11.01
2019-04-21T01:27:45.669Z,11.06
2019-04-21T01:28:40.051Z,11.02
2019-04-21T01:29:51.452Z,10.95
2019-04-21T01:30:50.337Z,10.87
2019-04-21T01:31:36.309Z,10.86
2019-04-21T01:32:46.861Z,10.76
2019-04-21T01:33:44.981Z,10.81
2019-04-21T01:34:45.513Z,10.78
2019-04-21T01:35:44.896Z,10.58
2019-04-21T01:36:38.570Z,10.68
2019-04-21T01:37:52.412Z,10.66
2019-04-21T01:38:52.498Z,10.69
2019-04-21T01:39:48.583Z,10.57
2019-04-21T01:40:51.646Z,10.57
2019-04-21T01:41:46.302Z,10.54
2019-04-21T01:42:48.148Z,10.57
2019-04-21T01:43:43.078Z,10.44
2019-04-21T01:44:48.416Z,10.39
2019-04-21T01:45:43.515Z,10.43
2019-04-21T01:46:40.678Z,10.38
2019-04-21T01:47:40.502Z,10.44
2019-04-21T01:48:39.053Z,10.38
2019-04-21T01:49:34.924Z,10.39
2019-04-21T01:50:40.964Z,10.34
2019-04-21T01:51:45.297Z,10.44
2019-04-21T01:52:53.140Z,10.32
2019-04-21T01:53:42.412Z,10.26
2019-04-21T01:54:53.469Z,10.42
2019-04-21T01:55:45.636Z,10.29
2019-04-21T01:56:43.189Z,10.16
2019-04-21T01:57:37.796Z,10.14
2019-04-21T01:58:34.158Z,10.10
2019-04-21T01:59:39.586Z,10.11
2019-04-21T02:00:38.999Z,10.32
2019-04-21T02:01:42.550Z,10.32
2019-04-21T02:02:46.213Z,10.42
2019-04-21T02:03:52.835Z,10.38
2019-04-21T02:04:50.058Z,10.39
2019-04-21T02:05:44.339Z,10.43
2019-04-21T02:06:45.552Z,10.55
2019-04-21T02:07:44.279Z,10.52
2019-04-21T02:08:43.497Z,10.51
2019-04-21T02:09:46.381Z,10.47
2019-04-21T02:10:46.232Z,10.36
2019-04-21T02:11:43.239Z,10.31
2019-04-21T02:12:47.875Z,10.29
2019-04-21T02:13:46.840Z,10.16
2019-04-21T02:14:50.336Z,10.16
2019-04-21T02:15:48.950Z,10.10
2019-04-21T02:16:40.437Z,10.04
2019-04-21T02:17:43.397Z,9.93
2019-04-21T02:18:39.086Z,9.98
2019-04-21T02:19:36.342Z,9.80
2019-04-21T02:20:31.734Z,9.78
2019-04-21T02:21:39.346Z,9.71
2019-04-21T02:23:01.926Z,9.65
2019-04-21T02:23:46.460Z,9.60
2019-04-21T02:24:49.697Z,9.53
2019-04-21T02:25:47.145Z,9.48
2019-04-21T02:26:47.166Z,9.44
2019-04-21T02:27:47.504Z,9.38
2019-04-21T02:28:51.620Z,9.44
2019-04-21T02:29:53.246Z,9.35
2019-04-21T02:30:56.911Z,9.31
2019-04-21T02:31:55.392Z,9.32
2019-04-21T02:35:18.738Z,9.23
2019-04-21T02:36:00.531Z,9.24
2019-04-21T02:37:07.215Z,9.26
2019-04-21T02:38:03.852Z,9.30
2019-04-21T02:39:03.380Z,9.44
2019-04-21T02:39:56.771Z,9.55
2019-04-21T02:41:55.866Z,9.68
2019-04-21T02:43:00.207Z,9.71
2019-04-21T02:44:52.049Z,9.71
2019-04-21T02:46:02.112Z,9.75
2019-04-21T02:47:57.266Z,9.75
2019-04-21T02:48:56.444Z,9.81
2019-04-21T02:50:01.913Z,9.83
2019-04-21T02:50:45.124Z,9.78
2019-04-21T02:51:54.942Z,9.83
2019-04-21T02:52:53.892Z,9.85
2019-04-21T02:54:11.925Z,9.80
2019-04-21T02:55:50.800Z,9.68
2019-04-21T02:57:01.667Z,9.71
2019-04-21T02:57:59.953Z,9.65
2019-04-21T02:59:59.977Z,9.58
2019-04-21T03:01:14.428Z,9.50
2019-04-21T03:01:55.940Z,9.45
2019-04-21T03:03:56.178Z,9.27
2019-04-21T03:06:15.346Z,9.10
2019-04-21T03:07:11.387Z,9.08
2019-04-21T03:08:05.703Z,9.00
2019-04-21T03:09:57.936Z,9.16
2019-04-21T03:11:08.679Z,9.10
2019-04-21T03:13:07.674Z,9.12
2019-04-21T03:14:05.621Z,9.13
2019-04-21T03:15:04.259Z,8.98
2019-04-21T03:16:11.783Z,8.93
2019-04-21T03:17:10.080Z,8.88
2019-04-21T03:18:08.220Z,8.78
2019-04-21T03:20:04.452Z,8.76
2019-04-21T03:22:07.172Z,8.70
2019-04-21T03:23:12.697Z,8.70
2019-04-21T03:24:03.936Z,8.78
2019-04-21T03:26:10.226Z,8.64
2019-04-21T03:29:03.601Z,8.39
2019-04-21T03:36:37.974Z,7.79
2019-04-21T03:38:05.691Z,7.84
2019-04-21T03:39:04.954Z,7.88
2019-04-21T03:39:59.877Z,7.89
2019-04-21T03:41:04.023Z,7.86
2019-04-21T03:42:07.395Z,7.81
2019-04-21T03:43:04.549Z,7.84
2019-04-21T03:44:06.603Z,7.77
2019-04-21T03:44:59.071Z,7.71
2019-04-21T03:46:01.282Z,7.73
2019-04-21T03:47:11.297Z,7.66
2019-04-21T03:48:01.164Z,7.70
2019-04-21T03:51:09.459Z,7.57
2019-04-21T03:52:15.251Z,7.57
2019-04-21T03:53:02.881Z,7.57
2019-04-21T03:54:00.670Z,7.52
2019-04-21T03:55:28.160Z,7.44
2019-04-21T03:57:17.828Z,7.60
2019-04-21T03:58:16.934Z,7.69
2019-04-21T04:00:10.945Z,8.02
2019-04-21T04:03:35.025Z,8.13
2019-04-21T04:05:05.726Z,8.14
2019-04-21T04:06:13.351Z,8.17
2019-04-21T04:07:10.998Z,8.09
2019-04-21T04:08:18.767Z,8.06
2019-04-21T04:09:09.685Z,8.00
2019-04-21T04:10:08.434Z,7.99
2019-04-21T04:11:14.343Z,8.03
2019-04-21T04:11:54.793Z,7.99
2019-04-21T04:13:04.999Z,7.88
2019-04-21T04:14:12.935Z,7.86
2019-04-21T04:15:03.065Z,7.94
2019-04-21T04:17:11.662Z,8.10
2019-04-21T04:18:57.684Z,8.07
2019-04-21T04:20:22.469Z,7.99
2019-04-21T04:21:15.073Z,8.07
2019-04-21T04:22:09.409Z,7.95
2019-04-21T04:23:02.738Z,8.00
2019-04-21T04:25:05.168Z,8.02
2019-04-21T04:27:11.152Z,8.06
2019-04-21T04:30:10.368Z,8.18
2019-04-21T04:31:05.117Z,8.21
2019-04-21T04:32:00.816Z,8.29
2019-04-21T04:32:56.667Z,8.36
2019-04-21T04:34:09.987Z,8.46
2019-04-21T04:35:03.334Z,8.43
2019-04-21T04:37:07.442Z,8.55
2019-04-21T04:38:07.139Z,8.52
2019-04-21T04:39:21.333Z,8.57
2019-04-21T04:41:06.219Z,8.64
2019-04-21T04:42:27.061Z,8.57
2019-04-21T04:43:09.106Z,8.63
2019-04-21T04:44:17.310Z,8.70
2019-04-21T04:46:02.635Z,8.73
2019-04-21T04:49:11.476Z,8.88
2019-04-21T04:51:16.290Z,8.89
2019-04-21T04:52:19.574Z,8.83
2019-04-21T04:52:56.708Z,8.80
2019-04-21T04:53:50.770Z,8.76
2019-04-21T04:56:08.348Z,8.63
2019-04-21T04:57:08.259Z,8.68
2019-04-21T05:00:14.901Z,8.67
2019-04-21T05:01:26.781Z,8.71
2019-04-21T05:02:15.216Z,8.61
2019-04-21T05:03:01.025Z,8.65
2019-04-21T05:04:06.260Z,8.60
2019-04-21T05:07:17.583Z,8.57
2019-04-21T05:09:23.518Z,8.47
2019-04-21T05:10:05.897Z,8.46
2019-04-21T05:11:23.405Z,8.34
2019-04-21T05:12:00.124Z,8.31
2019-04-21T05:13:08.224Z,8.31
2019-04-21T05:14:23.029Z,8.36
2019-04-21T05:15:08.495Z,8.32
2019-04-21T05:16:16.299Z,8.43
2019-04-21T05:17:15.768Z,8.47
2019-04-21T05:18:15.170Z,8.43
2019-04-21T05:19:21.259Z,8.49
2019-04-21T05:20:11.192Z,8.54
2019-04-21T05:21:23.280Z,8.57
2019-04-21T05:22:11.017Z,8.65
2019-04-21T05:23:07.359Z,8.70
2019-04-21T05:24:10.910Z,8.76
2019-04-21T05:25:02.445Z,8.88
2019-04-21T05:25:54.319Z,8.88
2019-04-21T05:26:59.546Z,9.16
2019-04-21T05:27:57.821Z,9.16
2019-04-21T05:28:52.562Z,9.19
2019-04-21T05:30:07.138Z,9.30
2019-04-21T05:31:06.261Z,9.37
2019-04-21T05:32:00.506Z,9.58
2019-04-21T05:33:07.119Z,9.71
2019-04-21T05:34:07.483Z,9.89
2019-04-21T05:35:04.211Z,9.93
2019-04-21T05:36:04.745Z,10.18
2019-04-21T05:37:05.444Z,10.35
2019-04-21T05:38:01.396Z,10.38
2019-04-21T05:38:58.393Z,10.52
2019-04-21T05:39:57.233Z,10.62
2019-04-21T05:40:59.095Z,10.66
2019-04-21T05:41:50.860Z,10.69
2019-04-21T05:43:00.185Z,10.76
2019-04-21T05:44:06.613Z,10.90
2019-04-21T05:45:12.715Z,11.03
2019-04-21T05:46:21.648Z,11.16
2019-04-21T05:47:18.818Z,11.38
2019-04-21T05:48:11.637Z,11.45
2019-04-21T05:49:05.003Z,11.56
2019-04-21T05:50:00.929Z,11.56
2019-04-21T05:50:59.181Z,11.67
2019-04-21T05:51:58.299Z,11.85
2019-04-21T05:52:53.528Z,11.97
2019-04-21T05:54:09.208Z,12.07
2019-04-21T05:55:05.291Z,12.07
2019-04-21T05:56:03.626Z,12.21
2019-04-21T05:56:59.778Z,12.37
2019-04-21T05:58:02.546Z,12.41
2019-04-21T05:59:03.415Z,12.58
2019-04-21T06:00:01.260Z,12.63
2019-04-21T06:01:15.343Z,12.62
2019-04-21T06:02:15.106Z,12.63
2019-04-21T06:03:05.382Z,12.74
2019-04-21T06:04:03.956Z,12.77
2019-04-21T06:05:17.891Z,12.85
2019-04-21T06:06:10.091Z,12.88
2019-04-21T06:07:06.032Z,13.03
2019-04-21T06:08:00.521Z,13.12
2019-04-21T06:09:05.311Z,13.14
2019-04-21T06:10:20.059Z,13.21
2019-04-21T06:11:23.877Z,13.24
2019-04-21T06:12:03.832Z,13.32
2019-04-21T06:13:06.057Z,13.46
2019-04-21T06:14:21.704Z,13.44
2019-04-21T06:15:03.824Z,13.61
2019-04-21T06:16:03.576Z,13.61
2019-04-21T06:17:01.558Z,13.73
2019-04-21T06:18:07.862Z,13.83
2019-04-21T06:19:23.207Z,13.83
2019-04-21T06:20:02.881Z,14.02
2019-04-21T06:21:07.217Z,14.08
2019-04-21T06:22:03.559Z,14.17
2019-04-21T06:23:02.995Z,14.16
2019-04-21T06:24:06.786Z,14.42
2019-04-21T06:25:31.710Z,14.35
2019-04-21T06:26:18.078Z,14.44
2019-04-21T06:27:22.699Z,14.45
2019-04-21T06:28:03.578Z,14.61
2019-04-21T06:29:04.105Z,14.75
2019-04-21T06:30:00.218Z,14.74
2019-04-21T06:31:21.591Z,14.82
2019-04-21T06:32:26.714Z,14.82
2019-04-21T06:32:59.489Z,14.87
2019-04-21T06:34:06.715Z,14.95
2019-04-21T06:37:07.817Z,15.09
2019-04-21T06:38:03.682Z,15.20
2019-04-21T06:39:17.908Z,15.22
2019-04-21T06:40:15.266Z,15.33
2019-04-21T06:41:06.221Z,15.38
2019-04-21T06:42:05.286Z,15.30
2019-04-21T06:43:11.361Z,15.18
2019-04-21T06:44:20.338Z,15.18
2019-04-21T06:45:10.422Z,15.31
2019-04-21T06:46:04.462Z,15.33
2019-04-21T06:47:09.445Z,15.44
2019-04-21T06:48:09.041Z,15.62
2019-04-21T06:49:02.829Z,15.70
2019-04-21T06:50:03.187Z,15.84
2019-04-21T06:51:12.432Z,15.86
2019-04-21T06:52:07.552Z,15.86
2019-04-21T06:53:15.439Z,15.91
2019-04-21T06:54:04.423Z,15.92
2019-04-21T06:56:05.031Z,16.06
2019-04-21T06:56:58.598Z,16.18
2019-04-21T06:58:02.204Z,16.33
2019-04-21T06:59:01.299Z,16.32
2019-04-21T07:00:03.921Z,16.29
2019-04-21T07:01:02.471Z,16.48
2019-04-21T07:03:11.400Z,16.78
2019-04-21T07:04:11.745Z,16.81
2019-04-21T07:05:08.987Z,16.98
2019-04-21T07:06:10.470Z,16.81
2019-04-21T07:10:26.067Z,16.95
2019-04-21T07:11:08.480Z,16.99
2019-04-21T07:12:05.834Z,16.96
2019-04-21T07:13:11.400Z,17.12
2019-04-21T07:15:11.360Z,17.28
2019-04-21T07:16:17.572Z,17.36
2019-04-21T07:17:17.835Z,17.24
2019-04-21T07:18:12.429Z,17.35
2019-04-21T07:20:13.667Z,17.43
2019-04-21T07:21:17.194Z,17.54
2019-04-21T07:22:14.583Z,17.66
2019-04-21T07:23:16.235Z,17.76
2019-04-21T07:24:14.168Z,17.74
2019-04-21T07:25:13.710Z,17.55
2019-04-21T07:26:10.556Z,17.53
2019-04-21T07:27:18.967Z,17.55
2019-04-21T07:28:10.829Z,17.80
2019-04-21T07:29:14.207Z,17.89
2019-04-21T07:30:16.057Z,17.79
2019-04-21T07:31:21.849Z,18.05
2019-04-21T07:32:12.127Z,18.13
2019-04-21T07:33:37.392Z,18.20
2019-04-21T07:34:23.939Z,18.20
2019-04-21T07:35:17.926Z,18.23
2019-04-21T07:36:17.447Z,18.17
2019-04-21T07:37:05.994Z,18.34
2019-04-21T07:38:11.245Z,18.39
2019-04-21T07:39:07.217Z,18.56
2019-04-21T07:40:07.795Z,18.64
2019-04-21T07:41:08.049Z,18.66
2019-04-21T07:42:06.508Z,18.74
2019-04-21T07:43:06.691Z,18.71
2019-04-21T07:44:04.648Z,18.64
2019-04-21T07:45:04.605Z,18.57
2019-04-21T07:46:04.004Z,18.64
2019-04-21T07:47:03.556Z,18.78
2019-04-21T07:48:08.243Z,18.64
2019-04-21T07:50:07.457Z,18.83
2019-04-21T07:51:14.015Z,18.84
2019-04-21T07:52:11.358Z,18.64
2019-04-21T07:53:19.594Z,18.64
2019-04-21T07:54:17.857Z,18.84
2019-04-21T07:55:20.026Z,19.13
2019-04-21T07:55:54.046Z,19.23
2019-04-21T07:57:04.854Z,19.25
2019-04-21T07:58:07.316Z,19.34
2019-04-21T07:59:09.995Z,19.53
2019-04-21T08:00:29.534Z,19.55
2019-04-21T08:01:14.862Z,19.62
2019-04-21T08:02:12.094Z,19.46
2019-04-21T08:03:12.879Z,19.42
2019-04-21T08:04:33.169Z,19.52
2019-04-21T08:05:15.987Z,19.53
2019-04-21T08:06:14.969Z,19.58
2019-04-21T08:07:05.071Z,19.72
2019-04-21T08:08:08.115Z,19.82
2019-04-21T08:09:08.936Z,19.80
2019-04-21T08:10:07.833Z,19.79
2019-04-21T08:11:10.997Z,19.97
2019-04-21T08:12:03.778Z,20.07
2019-04-21T08:13:14.789Z,20.04
2019-04-21T08:14:08.380Z,20.10
2019-04-21T08:15:15.884Z,20.13
2019-04-21T08:16:10.595Z,19.97
2019-04-21T08:17:10.980Z,19.86
2019-04-21T08:18:11.754Z,19.86
2019-04-21T08:19:12.698Z,19.75
2019-04-21T08:20:07.422Z,19.92
2019-04-21T08:21:05.775Z,20.15
2019-04-21T08:22:12.510Z,20.27
2019-04-21T08:23:13.525Z,20.37
2019-04-21T08:24:10.518Z,20.33
2019-04-21T08:25:08.989Z,20.25
2019-04-21T08:26:12.176Z,20.22
2019-04-21T08:27:11.997Z,20.22
2019-04-21T08:28:07.303Z,20.33
2019-04-21T08:29:20.699Z,20.35
2019-04-21T08:30:14.330Z,20.53
2019-04-21T08:31:10.219Z,20.41
2019-04-21T08:32:18.477Z,20.44
2019-04-21T08:33:18.785Z,20.40
2019-04-21T08:34:17.810Z,20.57
2019-04-21T08:35:49.458Z,20.50
2019-04-21T08:36:17.695Z,20.53
2019-04-21T08:37:11.746Z,20.68
2019-04-21T08:38:08.531Z,20.85
2019-04-21T08:39:08.753Z,20.87
2019-04-21T08:40:17.653Z,20.93
2019-04-21T08:41:08.052Z,21.12
2019-04-21T08:42:14.800Z,21.12
2019-04-21T08:43:08.807Z,21.33
2019-04-21T08:44:10.657Z,21.27
2019-04-21T08:45:10.734Z,21.01
2019-04-21T08:46:08.196Z,21.09
2019-04-21T08:47:12.973Z,21.11
2019-04-21T08:48:10.227Z,21.26
2019-04-21T08:49:07.955Z,21.34
2019-04-21T08:50:09.643Z,21.43
2019-04-21T08:51:24.502Z,21.67
2019-04-21T08:52:13.757Z,21.51
2019-04-21T08:53:07.847Z,21.33
2019-04-21T08:54:09.478Z,21.27
2019-04-21T08:55:10.931Z,21.28
2019-04-21T08:56:12.302Z,21.12
2019-04-21T08:57:10.200Z,21.22
2019-04-21T08:58:15.224Z,21.22
2019-04-21T08:59:15.146Z,21.21
2019-04-21T09:00:18.643Z,21.27
2019-04-21T09:01:14.104Z,21.34
2019-04-21T09:02:06.318Z,21.38
2019-04-21T09:03:06.690Z,21.36
2019-04-21T09:04:11.634Z,21.51
2019-04-21T09:05:04.846Z,21.49
2019-04-21T09:06:17.343Z,21.70
2019-04-21T09:07:29.296Z,21.83
2019-04-21T09:08:20.240Z,21.94
2019-04-21T09:09:11.888Z,21.51
2019-04-21T09:10:05.195Z,21.58
2019-04-21T09:11:10.113Z,21.71
2019-04-21T09:12:04.302Z,21.70
2019-04-21T09:13:07.437Z,21.86
2019-04-21T09:14:07.359Z,21.82
2019-04-21T09:15:09.914Z,21.91
2019-04-21T09:16:06.674Z,22.05
2019-04-21T09:17:00.382Z,21.98
2019-04-21T09:18:04.918Z,21.96
2019-04-21T09:18:59.517Z,21.96
2019-04-21T09:20:13.807Z,21.74
2019-04-21T09:21:07.257Z,21.94
2019-04-21T09:22:05.843Z,21.96
2019-04-21T09:23:09.365Z,21.68
2019-04-21T09:24:13.060Z,21.85
2019-04-21T09:25:03.311Z,21.68
2019-04-21T09:26:06.027Z,21.98
2019-04-21T09:27:03.741Z,21.91
2019-04-21T09:28:04.043Z,22.05
2019-04-21T09:29:03.456Z,22.02
2019-04-21T09:29:54.235Z,21.93
2019-04-21T09:30:53.448Z,21.91
2019-04-21T09:31:50.297Z,21.99
2019-04-21T09:32:53.117Z,22.01
2019-04-21T09:33:50.774Z,22.11
2019-04-21T09:34:50.695Z,22.12
2019-04-21T09:35:55.537Z,22.33
2019-04-21T09:36:52.100Z,22.44
2019-04-21T09:37:56.138Z,22.42
2019-04-21T09:38:56.097Z,22.45
2019-04-21T09:39:51.871Z,22.44
2019-04-21T09:40:51.316Z,22.42
2019-04-21T09:41:51.212Z,22.44
2019-04-21T09:42:56.945Z,22.51
2019-04-21T09:43:52.207Z,22.51
2019-04-21T09:44:52.277Z,22.46
2019-04-21T09:45:49.521Z,22.67
2019-04-21T09:46:54.078Z,22.88
2019-04-21T09:47:57.208Z,22.91
2019-04-21T09:48:55.431Z,22.54
2019-04-21T09:49:49.329Z,22.46
2019-04-21T09:50:48.082Z,22.56
2019-04-21T09:51:48.389Z,22.20
2019-04-21T09:52:54.533Z,22.08
2019-04-21T09:53:56.595Z,22.14
2019-04-21T09:54:56.429Z,22.38
2019-04-21T09:55:54.803Z,22.24
2019-04-21T09:56:57.140Z,22.15
2019-04-21T09:57:52.177Z,22.06
2019-04-21T09:58:51.424Z,22.11
2019-04-21T09:59:57.080Z,22.21
2019-04-21T10:01:01.468Z,22.54
2019-04-21T10:02:00.206Z,22.51
2019-04-21T10:02:56.775Z,22.61
2019-04-21T10:03:52.196Z,22.91
2019-04-21T10:04:48.277Z,22.96
2019-04-21T10:05:47.882Z,22.76
2019-04-21T10:06:47.877Z,23.01
2019-04-21T10:07:48.923Z,23.12
2019-04-21T10:08:50.439Z,23.26
2019-04-21T10:09:47.966Z,23.49
2019-04-21T10:10:49.078Z,23.42
2019-04-21T10:11:48.173Z,23.56
2019-04-21T10:12:47.861Z,23.63
2019-04-21T10:13:48.716Z,23.67
2019-04-21T10:14:47.783Z,23.50
2019-04-21T10:15:48.546Z,23.34
2019-04-21T10:16:47.757Z,23.23
2019-04-21T10:17:47.774Z,23.39
2019-04-21T10:18:48.166Z,23.45
2019-04-21T10:19:48.508Z,23.45
2019-04-21T10:20:49.092Z,23.54
2019-04-21T10:21:47.935Z,23.42
2019-04-21T10:22:48.915Z,23.68
2019-04-21T10:23:47.972Z,23.56
2019-04-21T10:24:48.803Z,23.75
2019-04-21T10:25:48.439Z,23.75
2019-04-21T10:26:47.657Z,23.63
2019-04-21T10:27:47.647Z,23.59
2019-04-21T10:28:48.950Z,23.69
2019-04-21T10:29:49.133Z,23.71
2019-04-21T10:30:49.021Z,23.75
2019-04-21T10:31:48.142Z,23.71
2019-04-21T10:32:48.410Z,23.63
2019-04-21T10:33:48.434Z,23.53
2019-04-21T10:34:47.595Z,23.07
2019-04-21T10:35:48.833Z,22.70
2019-04-21T10:36:47.549Z,22.75
2019-04-21T10:38:01.431Z,23.00
2019-04-21T10:38:51.331Z,23.23
2019-04-21T10:39:47.608Z,23.42
2019-04-21T10:40:47.632Z,23.29
2019-04-21T10:41:47.761Z,23.26
2019-04-21T10:42:48.118Z,23.47
2019-04-21T10:43:47.464Z,23.39
2019-04-21T10:44:47.444Z,23.52
2019-04-21T10:45:48.699Z,23.50
2019-04-21T10:46:50.319Z,23.53
2019-04-21T10:47:47.456Z,23.60
2019-04-21T10:48:48.474Z,23.53
2019-04-21T10:49:48.573Z,23.68
2019-04-21T10:50:47.392Z,23.71
2019-04-21T10:51:48.797Z,22.96
2019-04-21T10:52:47.399Z,22.66
2019-04-21T10:53:50.869Z,22.60
2019-04-21T10:55:06.917Z,22.79
2019-04-21T10:56:00.397Z,22.82
2019-04-21T10:56:47.879Z,22.86
2019-04-21T10:57:48.363Z,22.93
2019-04-21T10:58:47.319Z,23.15
2019-04-21T10:59:50.746Z,23.15
2019-04-21T11:00:48.445Z,22.99
2019-04-21T11:01:47.271Z,23.00
2019-04-21T11:02:48.707Z,23.31
2019-04-21T11:03:47.261Z,23.44
2019-04-21T11:04:47.240Z,23.69
2019-04-21T11:05:48.310Z,23.84
2019-04-21T11:06:48.219Z,24.08
2019-04-21T11:08:01.258Z,24.21
2019-04-21T11:08:55.576Z,23.82
2019-04-21T11:09:47.171Z,23.68
2019-04-21T11:10:47.809Z,23.75
2019-04-21T11:11:49.872Z,23.74
2019-04-21T11:12:47.841Z,23.59
2019-04-21T11:13:48.368Z,23.87
2019-04-21T11:14:47.242Z,24.09
2019-04-21T11:15:47.510Z,24.08
2019-04-21T11:16:49.027Z,24.16
2019-04-21T11:17:48.791Z,24.19
2019-04-21T11:18:48.258Z,24.23
2019-04-21T11:19:47.074Z,24.30
2019-04-21T11:20:47.059Z,24.36
2019-04-21T11:21:47.129Z,24.29
2019-04-21T11:22:47.356Z,24.16
2019-04-21T11:23:48.014Z,24.16
2019-04-21T11:24:47.114Z,24.16
2019-04-21T11:25:48.202Z,24.27
2019-04-21T11:26:47.727Z,24.31
2019-04-21T11:27:47.144Z,24.51
2019-04-21T11:28:47.294Z,24.70
2019-04-21T11:29:47.475Z,24.61
2019-04-21T11:30:46.946Z,24.75
2019-04-21T11:31:47.291Z,24.36
2019-04-21T11:32:49.090Z,24.26
2019-04-21T11:33:47.194Z,24.08
2019-04-21T11:34:47.236Z,23.78
2019-04-21T11:35:46.891Z,23.64
2019-04-21T11:36:47.828Z,23.71
2019-04-21T11:37:48.261Z,23.79
2019-04-21T11:39:02.365Z,23.59
2019-04-21T11:39:55.438Z,23.60
2019-04-21T11:40:47.542Z,23.67
2019-04-21T11:41:47.833Z,23.69
2019-04-21T11:42:48.038Z,23.64
2019-04-21T11:43:46.831Z,23.71
2019-04-21T11:44:47.151Z,23.78
2019-04-21T11:45:46.790Z,23.72
2019-04-21T11:46:46.770Z,23.37
2019-04-21T11:47:48.171Z,23.69
2019-04-21T11:48:48.256Z,23.93
2019-04-21T11:49:47.216Z,24.11
2019-04-21T11:50:46.825Z,24.04
2019-04-21T11:51:47.015Z,24.00
2019-04-21T11:52:47.324Z,24.18
2019-04-21T11:53:46.704Z,24.27
2019-04-21T11:54:46.807Z,24.39
2019-04-21T11:55:49.919Z,24.24
2019-04-21T11:56:46.666Z,24.26
2019-04-21T11:57:49.807Z,24.48
2019-04-21T11:58:47.784Z,24.59
2019-04-21T11:59:47.926Z,24.80
2019-04-21T12:00:47.479Z,24.90
2019-04-21T12:01:47.615Z,24.82
2019-04-21T12:02:47.746Z,24.41
2019-04-21T12:03:47.535Z,24.41
2019-04-21T12:04:47.557Z,24.41
2019-04-21T12:05:47.716Z,24.41
2019-04-21T12:06:48.834Z,24.33
2019-04-21T12:07:47.172Z,24.39
2019-04-21T12:08:49.946Z,24.41
2019-04-21T12:09:47.799Z,24.05
2019-04-21T12:10:47.270Z,23.79
2019-04-21T12:11:47.428Z,23.77
2019-04-21T12:12:47.534Z,23.87
2019-04-21T12:13:47.819Z,23.96
2019-04-21T12:14:46.485Z,23.96
2019-04-21T12:15:47.146Z,24.18
2019-04-21T12:16:46.747Z,24.05
2019-04-21T12:17:47.834Z,23.90
2019-04-21T12:18:47.187Z,23.99
2019-04-21T12:19:46.543Z,24.29
2019-04-21T12:20:47.330Z,24.39
2019-04-21T12:21:57.598Z,24.39
2019-04-21T12:22:47.428Z,24.61
2019-04-21T12:23:46.368Z,24.44
2019-04-21T12:24:47.077Z,24.63
2019-04-21T12:25:47.338Z,24.71
2019-04-21T12:26:46.437Z,24.49
2019-04-21T12:27:47.772Z,24.79
2019-04-21T12:28:46.320Z,24.84
2019-04-21T12:29:46.322Z,24.94
2019-04-21T12:30:47.375Z,25.12
2019-04-21T12:31:47.556Z,25.04
2019-04-21T12:32:46.351Z,25.17
2019-04-21T12:33:46.261Z,25.17
2019-04-21T12:34:48.894Z,24.75
2019-04-21T12:35:46.270Z,24.79
2019-04-21T12:36:46.500Z,24.53
2019-04-21T12:37:46.879Z,24.34
2019-04-21T12:38:50.907Z,24.04
2019-04-21T12:39:46.206Z,23.93
2019-04-21T12:40:46.539Z,23.94
2019-04-21T12:41:46.680Z,24.00
2019-04-21T12:42:46.167Z,23.96
2019-04-21T12:43:46.585Z,23.87
2019-04-21T12:44:47.444Z,23.94
2019-04-21T12:45:46.161Z,23.96
2019-04-21T12:46:46.128Z,24.26
2019-04-21T12:47:49.912Z,24.27
2019-04-21T12:48:46.237Z,24.37
2019-04-21T12:49:46.099Z,24.41
2019-04-21T12:50:46.110Z,24.12
2019-04-21T12:51:46.194Z,24.14
2019-04-21T12:52:47.351Z,24.00
2019-04-21T12:53:46.057Z,24.42
2019-04-21T12:54:46.047Z,24.70
2019-04-21T12:55:46.702Z,24.87
2019-04-21T12:56:47.542Z,24.89
2019-04-21T12:57:46.007Z,24.90
2019-04-21T12:58:47.110Z,24.94
2019-04-21T12:59:46.710Z,24.98
2019-04-21T13:00:47.146Z,25.07
2019-04-21T13:01:45.958Z,25.27
2019-04-21T13:02:45.946Z,25.39
2019-04-21T13:03:45.992Z,25.31
2019-04-21T13:04:46.209Z,25.31
2019-04-21T13:05:45.945Z,25.19
2019-04-21T13:06:45.915Z,24.61
2019-04-21T13:07:45.903Z,23.86
2019-04-21T13:08:54.495Z,23.97
2019-04-21T13:09:52.697Z,24.21
2019-04-21T13:10:46.403Z,24.05
2019-04-21T13:11:46.861Z,24.12
2019-04-21T13:12:45.960Z,24.04
2019-04-21T13:13:46.024Z,24.04
2019-04-21T13:14:45.820Z,23.94
2019-04-21T13:15:47.218Z,24.09
2019-04-21T13:16:45.805Z,24.09
2019-04-21T13:17:47.318Z,24.09
2019-04-21T13:18:47.027Z,23.82
2019-04-21T13:19:45.776Z,23.67
2019-04-21T13:20:46.382Z,23.81
2019-04-21T13:21:45.975Z,23.82
2019-04-21T13:22:46.104Z,24.02
2019-04-21T13:23:46.969Z,24.04
2019-04-21T13:24:45.720Z,24.37
2019-04-21T13:25:45.821Z,24.66
2019-04-21T13:26:52.369Z,25.01
2019-04-21T13:27:47.139Z,25.27
2019-04-21T13:28:45.682Z,25.39
2019-04-21T13:29:46.267Z,25.42
2019-04-21T13:30:46.367Z,25.59
2019-04-21T13:31:45.641Z,25.53
2019-04-21T13:32:46.976Z,25.36
2019-04-21T13:33:46.124Z,25.31
2019-04-21T13:34:46.039Z,25.38
2019-04-21T13:35:46.785Z,25.51
2019-04-21T13:36:45.690Z,25.67
2019-04-21T13:37:45.839Z,25.64
2019-04-21T13:39:13.669Z,25.79
2019-04-21T13:40:09.730Z,25.69
2019-04-21T13:41:03.775Z,25.82
2019-04-21T13:41:57.019Z,25.90
2019-04-21T13:42:49.524Z,25.98
2019-04-21T13:43:45.583Z,25.79
2019-04-21T13:44:46.616Z,25.97
2019-04-21T13:45:45.862Z,25.61
2019-04-21T13:46:46.955Z,25.12
2019-04-21T13:47:46.247Z,25.38
2019-04-21T13:48:46.517Z,25.57
2019-04-21T13:49:45.555Z,25.67
2019-04-21T13:50:46.937Z,25.82
2019-04-21T13:51:45.871Z,25.85
2019-04-21T13:52:46.735Z,25.59
2019-04-21T13:53:45.985Z,24.94
2019-04-21T13:54:45.602Z,24.37
2019-04-21T13:55:46.708Z,23.94
2019-04-21T13:56:46.838Z,23.96
2019-04-21T13:57:46.481Z,24.16